Time;durP1;ratioP1;P1;durP2;ratioP2;P2;SDS_P1;SDS_P2;PMS_P1;PMS_P2;Temp;Humidity;BMP_temperature;BMP_pressure;BME280_temperature;BME280_humidity;BME280_pressure;Samples;Min_cycle;Max_cycle;Signal;HPM_P1;HPM_P2
2023/01/12 00:05:16;;;;;;;13.07;5.80;;;6.40;99.90;;;;;;5535364;23;20476;-71
2023/01/12 00:07:41;;;;;;;9.13;5.20;;;6.30;99.90;;;;;;5018998;28;20628;-70
2023/01/12 00:10:07;;;;;;;15.03;6.07;;;6.40;99.90;;;;;;5014505;28;20214;-72
2023/01/12 00:12:33;;;;;;;13.27;5.77;;;6.40;99.90;;;;;;5029359;28;20236;-72
2023/01/12 00:14:58;;;;;;;13.83;6.33;;;6.40;99.90;;;;;;5017599;28;20626;-74
2023/01/12 00:17:24;;;;;;;11.13;6.00;;;6.40;99.90;;;;;;5008853;28;20219;-76
2023/01/12 00:19:50;;;;;;;15.90;7.13;;;6.40;99.90;;;;;;4991769;28;20228;-77
2023/01/12 00:22:15;;;;;;;12.60;5.73;;;6.40;99.90;;;;;;5007590;28;20221;-70
2023/01/12 00:24:43;;;;;;;11.90;5.87;;;6.50;99.90;;;;;;5009527;28;20212;-72
2023/01/12 00:27:11;;;;;;;13.93;5.23;;;6.50;99.90;;;;;;5010603;28;20201;-75
2023/01/12 00:29:37;;;;;;;11.10;5.13;;;6.50;99.90;;;;;;4997072;28;20557;-74
2023/01/12 00:32:04;;;;;;;11.60;5.63;;;6.50;99.90;;;;;;5008750;28;20202;-72
2023/01/12 00:34:30;;;;;;;13.53;6.33;;;6.50;99.90;;;;;;5004908;28;20205;-74
2023/01/12 00:36:58;;;;;;;13.67;5.80;;;6.50;99.90;;;;;;5005651;28;20296;-74
2023/01/12 00:39:24;;;;;;;11.10;5.63;;;6.50;99.90;;;;;;5009588;28;20176;-76
2023/01/12 00:47:18;;;;;;;12.77;5.80;;;6.40;99.90;;;;;;5004932;28;20685;-74
2023/01/12 00:49:44;;;;;;;9.13;4.77;;;6.40;99.90;;;;;;5007085;28;20229;-72
2023/01/12 00:52:12;;;;;;;11.37;5.80;;;6.50;99.90;;;;;;5011412;28;20209;-72
2023/01/12 00:54:38;;;;;;;11.97;4.43;;;6.40;99.90;;;;;;5010991;28;20260;-72
2023/01/12 00:57:04;;;;;;;9.33;4.87;;;6.40;99.90;;;;;;5009061;28;20590;-70
2023/01/12 00:59:30;;;;;;;12.23;4.53;;;6.40;99.90;;;;;;5011733;28;20204;-73
2023/01/12 01:01:56;;;;;;;11.97;4.77;;;6.40;99.90;;;;;;5029660;28;20724;-71
2023/01/12 01:04:22;;;;;;;10.70;4.13;;;6.40;99.90;;;;;;5033016;28;20816;-70
2023/01/12 01:06:47;;;;;;;9.93;4.23;;;6.40;99.90;;;;;;5025292;28;20228;-71
2023/01/12 01:09:13;;;;;;;11.93;4.40;;;6.40;99.90;;;;;;5024946;28;20229;-71
2023/01/12 01:11:39;;;;;;;10.77;4.20;;;6.40;99.90;;;;;;5029196;28;20184;-73
2023/01/12 01:14:05;;;;;;;8.83;4.60;;;6.40;99.90;;;;;;5025472;28;20339;-72
2023/01/12 01:16:31;;;;;;;14.23;4.20;;;6.40;99.90;;;;;;5030228;28;20304;-69
2023/01/12 01:18:58;;;;;;;10.73;4.63;;;6.40;99.90;;;;;;5027747;28;20204;-69
2023/01/12 01:21:24;;;;;;;9.00;4.03;;;6.40;99.90;;;;;;5027688;28;20689;-71
2023/01/12 01:23:50;;;;;;;9.37;3.77;;;6.40;99.90;;;;;;5028273;28;20239;-70
2023/01/12 01:26:18;;;;;;;10.03;3.87;;;6.40;99.90;;;;;;5025295;28;20223;-74
2023/01/12 01:28:44;;;;;;;12.73;3.50;;;6.40;99.90;;;;;;5028458;28;20204;-72
2023/01/12 01:31:11;;;;;;;9.23;4.10;;;6.40;99.90;;;;;;5029271;28;20551;-72
2023/01/12 01:33:37;;;;;;;15.57;3.63;;;6.40;99.90;;;;;;5014799;28;20215;-71
2023/01/12 01:36:03;;;;;;;9.87;3.43;;;6.40;99.90;;;;;;5026296;28;20263;-74
2023/01/12 01:38:29;;;;;;;9.97;2.80;;;6.40;99.90;;;;;;5030692;28;20218;-73
2023/01/12 01:40:55;;;;;;;15.43;3.50;;;6.40;99.90;;;;;;5028393;28;20259;-73
2023/01/12 01:43:23;;;;;;;12.70;2.73;;;6.50;99.90;;;;;;5012372;28;20217;-72
2023/01/12 01:46:02;;;;;;;11.70;2.80;;;6.50;99.90;;;;;;5015319;28;20283;-72
2023/01/12 01:48:31;;;;;;;15.17;3.07;;;6.60;99.90;;;;;;5027259;28;20540;-74
2023/01/12 01:51:01;;;;;;;10.23;3.13;;;6.60;99.90;;;;;;5029923;28;20169;-72
2023/01/12 01:53:29;;;;;;;12.07;3.00;;;6.70;99.90;;;;;;5028779;28;20204;-69
2023/01/12 01:56:07;;;;;;;7.43;2.70;;;6.70;99.90;;;;;;5028128;28;20208;-70
2023/01/12 01:59:08;;;;;;;9.07;2.83;;;6.70;99.90;;;;;;5031190;28;20269;-71
2023/01/12 02:01:34;;;;;;;9.47;3.20;;;6.80;99.90;;;;;;5003681;28;20646;-72
2023/01/12 02:04:00;;;;;;;11.80;3.43;;;6.80;99.90;;;;;;5023927;28;20310;-75
2023/01/12 02:06:27;;;;;;;11.27;3.50;;;6.80;99.90;;;;;;5028193;28;20298;-75
2023/01/12 02:09:00;;;;;;;10.63;2.50;;;6.80;99.90;;;;;;5009804;28;20177;-76
2023/01/12 02:17:09;;;;;;;10.03;2.50;;;6.90;99.90;;;;;;5030971;28;20299;-70
2023/01/12 02:20:10;;;;;;;13.23;2.50;;;6.90;99.90;;;;;;5026723;28;20211;-68
2023/01/12 02:23:06;;;;;;;8.57;2.37;;;6.90;99.90;;;;;;5024809;28;20493;-70
2023/01/12 02:25:38;;;;;;;11.97;2.37;;;6.90;99.90;;;;;;5028560;28;20724;-68
2023/01/12 02:28:34;;;;;;;8.77;2.60;;;6.90;99.90;;;;;;5027243;28;20215;-71
2023/01/12 02:31:23;;;;;;;10.53;2.37;;;7.00;99.90;;;;;;5026075;28;20741;-71
2023/01/12 02:34:15;;;;;;;13.57;2.50;;;7.00;99.90;;;;;;5023492;28;20710;-71
2023/01/12 02:36:46;;;;;;;9.60;2.60;;;7.00;99.90;;;;;;5027792;28;20616;-70
2023/01/12 02:39:22;;;;;;;11.83;2.43;;;7.00;99.90;;;;;;5025617;28;20172;-72
2023/01/12 02:45:25;;;;;;;7.33;2.73;;;6.90;99.90;;;;;;5026167;28;20323;-76
2023/01/12 02:48:13;;;;;;;13.03;2.40;;;7.00;99.90;;;;;;5021245;28;20697;-70
2023/01/12 02:50:44;;;;;;;9.73;2.00;;;6.90;99.90;;;;;;5027491;28;20201;-71
2023/01/12 02:53:23;;;;;;;14.73;2.60;;;7.00;99.90;;;;;;5028716;28;20219;-70
2023/01/12 02:55:49;;;;;;;9.30;2.27;;;6.90;99.90;;;;;;5025763;28;20705;-71
2023/01/12 02:58:19;;;;;;;11.80;3.27;;;6.90;99.90;;;;;;5026892;28;20209;-70
2023/01/12 03:00:48;;;;;;;6.57;2.10;;;6.90;99.90;;;;;;5010465;28;20208;-72
2023/01/12 03:03:16;;;;;;;8.37;2.60;;;7.00;99.90;;;;;;5025343;28;20252;-71
2023/01/12 03:05:42;;;;;;;10.03;1.90;;;7.00;99.90;;;;;;5028938;28;20254;-70
2023/01/12 03:08:11;;;;;;;8.03;2.60;;;7.00;99.90;;;;;;5025076;28;20767;-70
2023/01/12 03:10:52;;;;;;;5.17;2.13;;;7.00;99.90;;;;;;5026280;28;20200;-69
2023/01/12 03:13:19;;;;;;;8.60;2.47;;;7.00;99.90;;;;;;5026267;28;20678;-74
2023/01/12 03:15:51;;;;;;;8.37;2.43;;;7.00;99.90;;;;;;5022926;28;20251;-72
2023/01/12 03:18:47;;;;;;;7.67;1.77;;;7.00;99.90;;;;;;5011625;28;20619;-73
2023/01/12 03:21:35;;;;;;;7.10;2.53;;;7.00;99.90;;;;;;5025008;28;20586;-70
2023/01/12 03:24:05;;;;;;;3.47;1.80;;;7.00;99.90;;;;;;5025909;28;20192;-67
2023/01/12 03:26:34;;;;;;;8.30;2.10;;;7.00;99.90;;;;;;5028039;28;20208;-70
2023/01/12 03:29:15;;;;;;;4.90;2.20;;;7.10;99.90;;;;;;5024112;28;20237;-74
2023/01/12 03:31:41;;;;;;;6.50;2.20;;;7.10;99.90;;;;;;5026821;28;20196;-74
2023/01/12 03:34:08;;;;;;;6.23;1.80;;;7.10;99.90;;;;;;5021400;28;20633;-72
2023/01/12 03:37:03;;;;;;;5.27;1.70;;;7.10;99.90;;;;;;5026341;28;20303;-72
2023/01/12 03:39:58;;;;;;;11.73;2.17;;;7.00;99.90;;;;;;5011377;28;20209;-71
2023/01/12 03:42:36;;;;;;;7.43;2.00;;;7.10;99.90;;;;;;5024263;28;20212;-72
2023/01/12 03:45:31;;;;;;;9.57;2.23;;;7.10;99.90;;;;;;5023718;28;20267;-72
2023/01/12 03:48:07;;;;;;;8.63;2.07;;;7.10;99.90;;;;;;5027987;28;20216;-72
2023/01/12 03:50:44;;;;;;;9.63;1.87;;;7.10;99.90;;;;;;5028017;28;20211;-70
2023/01/12 03:53:12;;;;;;;7.23;2.20;;;7.10;99.90;;;;;;5025209;28;20282;-72
2023/01/12 03:55:39;;;;;;;6.23;1.63;;;7.10;99.90;;;;;;5025735;28;20219;-73
2023/01/12 03:58:05;;;;;;;6.07;1.60;;;7.10;99.90;;;;;;5023271;28;20208;-73
2023/01/12 04:00:31;;;;;;;7.13;1.90;;;7.10;99.90;;;;;;5024333;28;20591;-73
2023/01/12 04:03:09;;;;;;;7.40;1.70;;;7.20;99.90;;;;;;5025454;28;20185;-73
2023/01/12 04:05:35;;;;;;;11.07;2.30;;;7.20;99.90;;;;;;5026571;28;20215;-73
2023/01/12 04:08:00;;;;;;;8.17;1.93;;;7.20;99.90;;;;;;5024892;28;20212;-72
2023/01/12 04:10:26;;;;;;;6.67;2.20;;;7.10;99.90;;;;;;5019449;28;20220;-72
2023/01/12 04:12:52;;;;;;;6.67;1.70;;;7.10;99.90;;;;;;5027165;28;20631;-72
2023/01/12 04:15:17;;;;;;;5.43;1.50;;;7.10;99.90;;;;;;5024011;28;20195;-72
2023/01/12 04:17:43;;;;;;;10.03;1.90;;;7.20;99.90;;;;;;5023682;28;20230;-72
2023/01/12 04:20:09;;;;;;;7.13;2.30;;;7.20;99.90;;;;;;5025146;28;20216;-72
2023/01/12 04:22:44;;;;;;;6.40;1.87;;;7.20;99.90;;;;;;5022207;28;20211;-72
2023/01/12 04:25:15;;;;;;;5.43;1.73;;;7.20;99.90;;;;;;5024677;28;20204;-72
2023/01/12 04:27:48;;;;;;;6.63;2.07;;;7.20;99.90;;;;;;5005152;28;20227;-74
2023/01/12 04:30:16;;;;;;;10.57;2.33;;;7.20;99.90;;;;;;5020826;28;20255;-74
2023/01/12 04:32:42;;;;;;;6.87;1.87;;;7.20;99.90;;;;;;5026322;28;20279;-73
2023/01/12 04:35:08;;;;;;;9.23;2.10;;;7.20;99.90;;;;;;5020023;28;20208;-73
2023/01/12 04:37:34;;;;;;;7.80;1.80;;;7.30;99.90;;;;;;5023526;28;20338;-71
2023/01/12 04:40:00;;;;;;;13.57;2.23;;;7.30;99.90;;;;;;5024832;28;20287;-72
2023/01/12 04:45:11;;;;;;;7.87;1.80;;;7.30;99.90;;;;;;5023089;28;20250;-73
2023/01/12 04:47:37;;;;;;;7.23;2.33;;;7.40;99.90;;;;;;5028463;28;20208;-73
2023/01/12 04:50:03;;;;;;;6.03;1.77;;;7.40;99.90;;;;;;5024582;28;20212;-73
2023/01/12 04:52:29;;;;;;;8.40;2.00;;;7.40;99.90;;;;;;5029733;28;20204;-73
2023/01/12 04:54:54;;;;;;;7.17;2.13;;;7.40;99.90;;;;;;5011378;28;20212;-72
2023/01/12 04:57:20;;;;;;;8.10;2.40;;;7.50;99.90;;;;;;5024810;28;20199;-72
2023/01/12 04:59:45;;;;;;;6.50;1.57;;;7.50;99.90;;;;;;5028789;28;20196;-72
2023/01/12 05:02:11;;;;;;;9.70;1.83;;;7.50;99.90;;;;;;5026636;28;20208;-71
2023/01/12 05:04:37;;;;;;;9.17;2.03;;;7.50;99.90;;;;;;5005611;28;20231;-73
2023/01/12 05:07:02;;;;;;;10.90;2.00;;;7.50;99.90;;;;;;5030070;28;20691;-73
2023/01/12 05:12:12;;;;;;;7.47;1.67;;;7.50;99.90;;;;;;5029720;28;20191;-72
2023/01/12 05:14:37;;;;;;;7.40;1.70;;;7.60;99.90;;;;;;5028026;28;20196;-70
2023/01/12 05:17:03;;;;;;;5.80;1.70;;;7.60;99.90;;;;;;5024679;28;20311;-72
2023/01/12 05:19:29;;;;;;;4.23;1.53;;;7.60;99.90;;;;;;5027720;28;20202;-73
2023/01/12 05:21:55;;;;;;;9.20;1.93;;;7.60;99.90;;;;;;5027402;28;20219;-72
2023/01/12 05:24:20;;;;;;;10.00;2.20;;;7.60;99.90;;;;;;5023922;28;20248;-73
2023/01/12 05:26:46;;;;;;;9.20;2.17;;;7.60;99.90;;;;;;5029326;28;20283;-73
2023/01/12 05:29:12;;;;;;;4.93;1.40;;;7.70;99.90;;;;;;5024196;28;20201;-72
2023/01/12 05:31:37;;;;;;;8.57;1.73;;;7.70;99.90;;;;;;5026237;28;20231;-72
2023/01/12 05:34:03;;;;;;;8.97;1.63;;;7.70;99.90;;;;;;5025138;28;20615;-73
2023/01/12 05:36:29;;;;;;;8.13;1.80;;;7.70;99.90;;;;;;5026494;28;20212;-72
2023/01/12 05:38:54;;;;;;;6.57;1.80;;;7.70;99.90;;;;;;5025613;28;20184;-72
2023/01/12 05:41:21;;;;;;;7.07;1.77;;;7.70;99.90;;;;;;5009524;28;20208;-72
2023/01/12 05:43:50;;;;;;;7.37;1.70;;;7.80;99.90;;;;;;5021271;28;20571;-72
2023/01/12 05:46:24;;;;;;;8.13;1.70;;;7.80;99.90;;;;;;5010139;28;20315;-72
2023/01/12 05:48:51;;;;;;;7.80;1.97;;;7.80;99.90;;;;;;5004477;28;20300;-72
2023/01/12 05:51:18;;;;;;;7.50;2.07;;;7.80;99.90;;;;;;5025179;28;20934;-72
2023/01/12 05:53:44;;;;;;;7.70;1.60;;;7.80;99.90;;;;;;5026242;28;20179;-73
2023/01/12 05:56:16;;;;;;;8.30;1.90;;;7.80;99.90;;;;;;5024139;28;20243;-72
2023/01/12 05:58:42;;;;;;;8.67;1.87;;;7.80;99.90;;;;;;5025427;28;20208;-72
2023/01/12 06:01:08;;;;;;;6.87;1.60;;;7.80;99.90;;;;;;5026088;28;20238;-72
2023/01/12 06:03:35;;;;;;;7.77;2.00;;;7.90;99.90;;;;;;5024748;28;20216;-72
2023/01/12 06:06:01;;;;;;;6.90;1.80;;;7.90;99.90;;;;;;5029350;28;20291;-72
2023/01/12 06:08:27;;;;;;;6.03;2.00;;;7.90;99.90;;;;;;5027058;28;20223;-73
2023/01/12 06:10:52;;;;;;;10.60;2.07;;;7.90;99.90;;;;;;5024442;28;20204;-71
2023/01/12 06:16:04;;;;;;;7.53;1.90;;;7.90;99.90;;;;;;5025143;28;20311;-73
2023/01/12 06:18:39;;;;;;;7.00;1.93;;;7.90;99.90;;;;;;5023748;28;20212;-72
2023/01/12 06:21:07;;;;;;;9.50;2.33;;;7.90;99.90;;;;;;5005304;28;20180;-72
2023/01/12 06:23:33;;;;;;;6.07;1.80;;;7.90;99.90;;;;;;5029182;28;20215;-70
2023/01/12 06:26:01;;;;;;;5.33;1.60;;;7.90;99.90;;;;;;5043446;23;20220;-74
2023/01/12 06:28:27;;;;;;;4.67;1.77;;;7.90;99.90;;;;;;5025589;28;20629;-74
2023/01/12 06:31:01;;;;;;;9.40;1.60;;;7.90;99.90;;;;;;5058342;28;20681;-74
2023/01/12 06:33:27;;;;;;;8.97;1.73;;;7.90;99.90;;;;;;5037262;28;20180;-73
2023/01/12 06:35:54;;;;;;;3.83;1.57;;;7.90;99.90;;;;;;5045313;28;20236;-74
2023/01/12 06:38:22;;;;;;;13.93;2.53;;;7.80;99.90;;;;;;5053557;28;20748;-74
2023/01/12 06:40:47;;;;;;;12.20;2.10;;;7.80;99.90;;;;;;5049754;28;20212;-74
2023/01/12 06:43:13;;;;;;;6.87;2.13;;;7.90;99.90;;;;;;5046306;28;20322;-73
2023/01/12 06:45:39;;;;;;;7.33;1.90;;;7.90;99.90;;;;;;5049078;28;20218;-73
2023/01/12 06:48:04;;;;;;;10.87;1.87;;;7.90;99.90;;;;;;5030769;28;20755;-73
2023/01/12 06:50:31;;;;;;;6.47;1.73;;;7.90;99.90;;;;;;5048588;28;20214;-73
2023/01/12 06:53:01;;;;;;;9.80;1.70;;;7.90;99.90;;;;;;5044994;28;20306;-72
2023/01/12 06:55:27;;;;;;;8.37;2.27;;;7.90;99.90;;;;;;5025543;28;20215;-74
2023/01/12 06:57:53;;;;;;;9.70;1.77;;;7.90;99.90;;;;;;5029370;28;20211;-73
2023/01/12 07:00:19;;;;;;;6.50;1.60;;;7.90;99.90;;;;;;5028546;28;20286;-73
2023/01/12 07:02:48;;;;;;;7.53;2.00;;;7.90;99.90;;;;;;5031758;28;20542;-73
2023/01/12 07:05:14;;;;;;;11.43;1.90;;;7.90;99.90;;;;;;5041208;28;20579;-72
2023/01/12 07:07:40;;;;;;;12.13;2.67;;;7.90;99.90;;;;;;5047531;28;20245;-73
2023/01/12 07:10:06;;;;;;;3.57;1.70;;;7.90;99.90;;;;;;5030111;28;20211;-74
2023/01/12 07:12:31;;;;;;;4.97;1.87;;;7.90;99.90;;;;;;5047431;28;20775;-74
2023/01/12 07:14:58;;;;;;;9.07;1.73;;;8.00;99.90;;;;;;5047290;28;20191;-74
2023/01/12 07:17:24;;;;;;;7.07;1.70;;;7.90;99.90;;;;;;5045645;28;20269;-73
2023/01/12 07:19:49;;;;;;;6.20;1.70;;;7.90;99.90;;;;;;5047570;28;20592;-73
2023/01/12 07:22:15;;;;;;;7.50;2.10;;;8.00;99.90;;;;;;5047574;28;20282;-72
2023/01/12 07:24:41;;;;;;;7.77;1.60;;;8.00;99.90;;;;;;5029998;28;20254;-73
2023/01/12 07:27:06;;;;;;;5.97;2.00;;;8.00;99.90;;;;;;5048638;28;20613;-73
2023/01/12 07:29:32;;;;;;;10.97;2.30;;;8.00;99.90;;;;;;5048175;28;20298;-75
2023/01/12 07:31:58;;;;;;;10.13;2.03;;;8.10;99.90;;;;;;5042856;28;20197;-73
2023/01/12 07:34:23;;;;;;;8.80;2.07;;;8.10;99.90;;;;;;5049299;28;20215;-73
2023/01/12 07:36:50;;;;;;;12.67;1.80;;;8.10;99.90;;;;;;5044309;28;20243;-73
2023/01/12 07:39:16;;;;;;;5.00;1.50;;;8.10;99.90;;;;;;5030042;28;20705;-73
2023/01/12 07:44:27;;;;;;;5.77;1.97;;;8.20;99.90;;;;;;5044689;28;20249;-74
2023/01/12 07:46:53;;;;;;;8.30;1.90;;;8.20;99.90;;;;;;5045561;28;20219;-73
2023/01/12 07:49:18;;;;;;;8.60;2.07;;;8.30;99.90;;;;;;5045562;28;20735;-72
2023/01/12 07:51:44;;;;;;;8.83;2.10;;;8.30;99.90;;;;;;5030354;28;20203;-75
2023/01/12 07:54:10;;;;;;;6.67;1.60;;;8.40;99.90;;;;;;5026529;28;20199;-72
2023/01/12 07:56:36;;;;;;;7.30;2.20;;;8.40;99.90;;;;;;5045470;28;20196;-75
2023/01/12 07:59:02;;;;;;;10.83;1.90;;;8.40;99.90;;;;;;5046689;28;20235;-72
2023/01/12 08:01:28;;;;;;;7.10;1.80;;;8.40;99.90;;;;;;5029446;28;20641;-73
2023/01/12 08:03:53;;;;;;;8.07;2.13;;;8.50;99.90;;;;;;5044863;28;20591;-73
2023/01/12 08:06:19;;;;;;;10.20;2.13;;;8.50;99.90;;;;;;5028738;28;20293;-73
2023/01/12 08:08:44;;;;;;;6.13;1.83;;;8.50;99.90;;;;;;5028749;28;20588;-73
2023/01/12 08:11:11;;;;;;;6.47;1.60;;;8.50;99.90;;;;;;5043650;28;20228;-71
2023/01/12 08:13:37;;;;;;;3.87;1.53;;;8.60;99.90;;;;;;5046600;28;20590;-75
2023/01/12 08:16:13;;;;;;;8.57;2.33;;;8.60;99.90;;;;;;5048259;28;20243;-73
2023/01/12 08:18:44;;;;;;;10.13;1.90;;;8.60;99.90;;;;;;5026236;28;20214;-73
2023/01/12 08:21:16;;;;;;;11.60;1.80;;;8.60;99.90;;;;;;5048006;28;20243;-73
2023/01/12 08:23:46;;;;;;;6.73;2.00;;;8.60;99.90;;;;;;5051977;28;20187;-73
2023/01/12 08:26:17;;;;;;;8.17;1.87;;;8.70;99.90;;;;;;5048410;28;20305;-73
2023/01/12 08:28:50;;;;;;;11.43;1.50;;;8.70;99.90;;;;;;5052277;28;20326;-73
2023/01/12 08:31:17;;;;;;;6.47;1.80;;;8.70;99.90;;;;;;5048372;28;20217;-73
2023/01/12 08:33:44;;;;;;;9.10;1.83;;;8.70;99.90;;;;;;5053691;28;20691;-73
2023/01/12 08:36:12;;;;;;;7.10;1.77;;;8.80;99.90;;;;;;5052452;28;20211;-71
2023/01/12 08:38:38;;;;;;;3.63;1.50;;;8.80;99.90;;;;;;5049345;28;20744;-74
2023/01/12 08:44:01;;;;;;;4.53;1.30;;;8.80;99.90;;;;;;5049100;28;20341;-73
2023/01/12 08:46:34;;;;;;;5.10;1.40;;;8.80;99.90;;;;;;5052197;28;20220;-74
2023/01/12 08:49:01;;;;;;;8.47;2.00;;;8.80;99.90;;;;;;5049014;28;20216;-74
2023/01/12 08:51:27;;;;;;;3.10;1.60;;;8.80;99.90;;;;;;5047249;28;20620;-74
2023/01/12 08:53:53;;;;;;;2.90;1.23;;;8.90;99.90;;;;;;5051321;28;20234;-73
2023/01/12 08:56:19;;;;;;;4.53;1.70;;;9.00;99.90;;;;;;5032347;28;20208;-73
2023/01/12 08:58:44;;;;;;;4.70;1.50;;;9.00;99.90;;;;;;5051617;28;20200;-73
2023/01/12 09:01:12;;;;;;;4.00;1.37;;;9.00;99.90;;;;;;5030231;28;20246;-71
2023/01/12 09:03:39;;;;;;;10.43;2.17;;;9.00;99.90;;;;;;5048744;28;20219;-74
2023/01/12 09:06:14;;;;;;;7.60;1.90;;;9.10;99.90;;;;;;5029303;28;20220;-71
2023/01/12 09:08:40;;;;;;;5.73;1.40;;;9.10;99.90;;;;;;5048317;28;20273;-74
2023/01/12 09:11:07;;;;;;;5.13;1.30;;;9.10;99.90;;;;;;5030314;28;20705;-73
2023/01/12 09:13:33;;;;;;;4.67;1.27;;;9.20;99.90;;;;;;5050285;28;20678;-73
2023/01/12 09:16:08;;;;;;;4.90;1.33;;;9.20;99.90;;;;;;5049075;28;20207;-73
2023/01/12 09:18:34;;;;;;;4.97;1.57;;;9.30;99.90;;;;;;5050710;28;20219;-71
2023/01/12 09:21:05;;;;;;;7.80;1.93;;;9.30;99.90;;;;;;5047648;28;20184;-74
2023/01/12 09:23:31;;;;;;;7.27;1.43;;;9.20;99.90;;;;;;5032340;28;20215;-71
2023/01/12 09:26:00;;;;;;;6.13;1.40;;;9.20;99.90;;;;;;5048992;28;20220;-74
2023/01/12 09:28:26;;;;;;;6.13;2.10;;;9.30;99.90;;;;;;5050030;28;20211;-73
2023/01/12 09:30:51;;;;;;;5.20;1.47;;;9.20;99.90;;;;;;5047973;28;20653;-74
2023/01/12 09:33:17;;;;;;;4.87;1.70;;;9.30;99.90;;;;;;5046290;28;20274;-73
2023/01/12 09:35:43;;;;;;;8.53;1.77;;;9.30;99.90;;;;;;5033369;28;20295;-74
2023/01/12 09:38:10;;;;;;;7.33;2.13;;;9.40;99.90;;;;;;5048825;28;20616;-73
2023/01/12 09:40:40;;;;;;;5.80;1.20;;;9.40;99.90;;;;;;5052301;28;20235;-74
2023/01/12 09:48:42;;;;;;;6.23;1.47;;;9.60;99.90;;;;;;5045448;28;20226;-74
2023/01/12 09:51:19;;;;;;;6.60;1.83;;;9.60;99.90;;;;;;5048995;28;20559;-73
2023/01/12 09:53:45;;;;;;;5.47;1.70;;;9.70;99.90;;;;;;5047474;28;20318;-73
2023/01/12 09:56:19;;;;;;;6.10;1.37;;;9.70;99.90;;;;;;5052665;28;20361;-72
2023/01/12 09:59:06;;;;;;;8.40;1.50;;;9.80;99.90;;;;;;5051964;28;20207;-73
2023/01/12 10:01:34;;;;;;;4.60;1.57;;;9.90;99.90;;;;;;5051386;28;20258;-72
2023/01/12 10:04:01;;;;;;;4.37;1.70;;;10.00;99.90;;;;;;5047367;28;20226;-73
2023/01/12 10:06:27;;;;;;;8.93;2.13;;;10.00;99.90;;;;;;5048843;28;20460;-73
2023/01/12 10:08:57;;;;;;;8.17;2.03;;;10.10;99.90;;;;;;5053753;28;20203;-73
2023/01/12 10:11:32;;;;;;;6.07;1.67;;;10.20;99.90;;;;;;5030810;28;20554;-73
2023/01/12 10:13:58;;;;;;;4.97;1.40;;;10.20;99.90;;;;;;5035854;28;20207;-73
2023/01/12 10:17:02;;;;;;;8.00;1.33;;;10.20;99.90;;;;;;5040957;28;20220;-74
2023/01/12 10:19:40;;;;;;;4.97;1.87;;;10.20;99.90;;;;;;5034137;28;20287;-74
2023/01/12 10:22:38;;;;;;;7.47;1.97;;;10.20;99.90;;;;;;5051744;28;20294;-73
2023/01/12 10:25:15;;;;;;;5.87;1.40;;;10.20;99.90;;;;;;5036004;28;20626;-74
2023/01/12 10:27:43;;;;;;;10.40;2.20;;;10.20;99.90;;;;;;5049538;28;20243;-73
2023/01/12 10:30:23;;;;;;;8.27;1.40;;;10.20;99.90;;;;;;5045142;28;20676;-73
2023/01/12 10:32:49;;;;;;;7.13;1.70;;;10.30;99.90;;;;;;5024571;28;20180;-72
2023/01/12 10:35:18;;;;;;;7.97;1.83;;;10.40;99.90;;;;;;5028916;28;20253;-72
2023/01/12 10:37:50;;;;;;;3.77;1.13;;;10.50;99.90;;;;;;5046169;28;20208;-72
2023/01/12 10:40:26;;;;;;;9.30;2.33;;;10.50;99.90;;;;;;5043556;28;20215;-74
2023/01/12 10:43:18;;;;;;;5.97;1.60;;;10.30;99.90;;;;;;5048858;28;20207;-74
2023/01/12 10:45:44;;;;;;;6.50;2.20;;;10.20;99.90;;;;;;5042391;28;20584;-74
2023/01/12 10:48:21;;;;;;;6.10;1.40;;;10.20;99.90;;;;;;5030664;28;20176;-74
2023/01/12 10:50:58;;;;;;;6.90;1.90;;;10.20;99.90;;;;;;5045887;28;20190;-76
2023/01/12 10:53:36;;;;;;;7.33;1.50;;;10.10;99.90;;;;;;5045289;28;20884;-74
2023/01/12 10:56:13;;;;;;;6.07;1.77;;;10.10;99.90;;;;;;5050574;28;20218;-74
2023/01/12 10:58:40;;;;;;;6.17;1.87;;;10.10;99.90;;;;;;5047034;28;20223;-75
2023/01/12 11:01:06;;;;;;;6.73;1.43;;;10.00;99.90;;;;;;5037226;28;20246;-75
2023/01/12 11:03:39;;;;;;;4.93;1.50;;;9.90;99.90;;;;;;5030855;28;20588;-75
2023/01/12 11:06:29;;;;;;;5.03;1.40;;;9.90;99.90;;;;;;5046076;28;20200;-77
2023/01/12 11:08:55;;;;;;;7.73;1.63;;;9.90;99.90;;;;;;5032077;28;20211;-74
2023/01/12 11:11:31;;;;;;;4.17;1.87;;;9.90;99.90;;;;;;5050357;28;20207;-75
2023/01/12 11:14:02;;;;;;;6.80;1.80;;;9.90;99.90;;;;;;5032271;28;20206;-76
2023/01/12 11:16:32;;;;;;;5.33;1.67;;;9.80;99.90;;;;;;5050262;28;20223;-73
2023/01/12 11:19:01;;;;;;;6.70;1.83;;;9.70;99.90;;;;;;5048668;28;20215;-73
2023/01/12 11:21:32;;;;;;;3.63;1.27;;;9.70;99.90;;;;;;5034021;28;20215;-74
2023/01/12 11:24:18;;;;;;;5.37;1.53;;;9.70;99.90;;;;;;5050528;28;20645;-74
2023/01/12 11:26:54;;;;;;;4.00;1.93;;;9.70;99.90;;;;;;5050928;28;20233;-74
2023/01/12 11:29:43;;;;;;;4.83;1.87;;;9.70;99.90;;;;;;5050879;28;20207;-74
2023/01/12 11:32:26;;;;;;;3.13;1.30;;;9.70;99.90;;;;;;5032751;28;20290;-73
2023/01/12 11:35:03;;;;;;;3.03;1.33;;;9.70;99.90;;;;;;5051555;28;20210;-73
2023/01/12 11:37:31;;;;;;;8.67;2.03;;;9.60;99.90;;;;;;5052885;28;20204;-74
2023/01/12 11:40:04;;;;;;;5.80;1.80;;;9.60;99.90;;;;;;5045682;28;20223;-74
2023/01/12 11:45:27;;;;;;;5.07;1.73;;;9.60;99.90;;;;;;5052988;28;20210;-74
2023/01/12 11:48:06;;;;;;;6.57;1.50;;;9.60;99.90;;;;;;5050061;28;20235;-73
2023/01/12 11:50:38;;;;;;;4.23;1.20;;;9.70;99.90;;;;;;5053047;28;20226;-73
2023/01/12 11:53:06;;;;;;;5.50;1.93;;;9.80;99.90;;;;;;5056892;28;20204;-75
2023/01/12 11:55:47;;;;;;;5.70;1.23;;;9.90;99.90;;;;;;5050642;28;20212;-74
2023/01/12 11:58:22;;;;;;;4.23;1.13;;;9.90;99.90;;;;;;5052280;28;20204;-72
2023/01/12 12:01:24;;;;;;;2.20;1.23;;;9.90;99.90;;;;;;5048915;28;20213;-75
2023/01/12 12:04:12;;;;;;;4.60;1.50;;;9.90;99.90;;;;;;5053137;28;20252;-73
2023/01/12 12:06:59;;;;;;;4.67;1.47;;;10.00;99.90;;;;;;5048730;28;20214;-74
2023/01/12 12:09:54;;;;;;;3.13;1.13;;;10.00;99.90;;;;;;5036981;28;20255;-74
2023/01/12 12:12:38;;;;;;;4.83;1.47;;;10.00;99.90;;;;;;5032853;28;20271;-74
2023/01/12 12:15:10;;;;;;;3.87;1.17;;;10.00;99.90;;;;;;5052013;28;20176;-73
2023/01/12 12:17:48;;;;;;;2.43;0.90;;;10.00;99.90;;;;;;5052608;28;20203;-73
2023/01/12 12:20:13;;;;;;;5.07;1.40;;;10.00;99.90;;;;;;5048550;28;20208;-73
2023/01/12 12:22:48;;;;;;;3.80;1.13;;;10.00;99.90;;;;;;5036954;28;20628;-74
2023/01/12 12:25:31;;;;;;;2.07;1.10;;;10.00;99.90;;;;;;5047209;28;20223;-70
2023/01/12 12:28:21;;;;;;;3.50;1.50;;;10.00;99.90;;;;;;5049205;28;20276;-74
2023/01/12 12:31:43;;;;;;;2.30;1.23;;;10.00;99.90;;;;;;5051016;28;20212;-74
2023/01/12 12:34:42;;;;;;;2.33;0.90;;;10.10;99.90;;;;;;4991901;28;20242;-74
2023/01/12 12:37:17;;;;;;;2.33;0.90;;;10.10;99.90;;;;;;5031568;28;20223;-73
2023/01/12 12:39:52;;;;;;;3.77;1.30;;;10.10;99.90;;;;;;5049340;28;20203;-74
2023/01/12 12:45:33;;;;;;;2.60;0.80;;;10.20;99.90;;;;;;5046834;28;20207;-73
2023/01/12 12:48:01;;;;;;;6.83;1.10;;;10.10;99.90;;;;;;5046100;28;20688;-73
2023/01/12 12:50:43;;;;;;;3.47;0.97;;;10.10;99.90;;;;;;5031437;28;20204;-73
2023/01/12 12:53:28;;;;;;;2.13;1.23;;;10.10;99.90;;;;;;5046657;28;20200;-74
2023/01/12 12:55:59;;;;;;;5.23;1.10;;;10.20;99.90;;;;;;5050397;28;20215;-74
2023/01/12 12:58:47;;;;;;;4.23;0.70;;;10.20;99.90;;;;;;5047428;28;20300;-73
2023/01/12 13:01:18;;;;;;;4.17;1.50;;;10.20;99.90;;;;;;5025336;28;20200;-73
2023/01/12 13:04:01;;;;;;;0.70;0.70;;;10.20;99.90;;;;;;5046706;28;20208;-73
2023/01/12 13:06:26;;;;;;;3.77;0.70;;;10.30;99.90;;;;;;5046949;28;20208;-74
2023/01/12 13:08:55;;;;;;;2.47;0.60;;;10.30;99.90;;;;;;5052289;28;20206;-74
2023/01/12 13:11:50;;;;;;;3.17;1.10;;;10.30;99.90;;;;;;5052331;28;20280;-73
2023/01/12 13:14:27;;;;;;;2.53;1.07;;;10.30;99.90;;;;;;5036506;28;20207;-74
2023/01/12 13:17:00;;;;;;;3.63;0.90;;;10.30;99.90;;;;;;5053678;28;20211;-73
2023/01/12 13:19:36;;;;;;;3.30;0.80;;;10.30;99.90;;;;;;5030396;28;20322;-73
2023/01/12 13:22:26;;;;;;;2.30;0.90;;;10.30;99.90;;;;;;5048929;28;20207;-73
2023/01/12 13:24:56;;;;;;;3.93;1.03;;;10.30;99.90;;;;;;5029827;28;20245;-73
2023/01/12 13:27:49;;;;;;;1.27;0.73;;;10.30;99.90;;;;;;5045606;28;20208;-72
2023/01/12 13:30:28;;;;;;;2.03;0.63;;;10.30;99.90;;;;;;5030179;28;20183;-72
2023/01/12 13:32:53;;;;;;;1.17;0.53;;;10.40;99.90;;;;;;5059251;28;20222;-74
2023/01/12 13:35:34;;;;;;;3.17;0.47;;;10.40;99.90;;;;;;5039026;28;20212;-72
2023/01/12 13:38:37;;;;;;;1.03;0.60;;;10.40;99.90;;;;;;5058439;28;20220;-74
2023/01/12 13:43:13;;;;;;;2.57;1.80;;;10.40;99.90;;;;;;5057128;28;20281;-71
2023/01/12 13:44:02;;;;;;;5.83;2.83;;;10.30;99.90;;;;;;5053754;28;20211;-71
2023/01/12 13:46:42;;;;;;;4.17;1.50;;;10.40;99.90;;;;;;5055024;28;20226;-72
2023/01/12 13:49:27;;;;;;;1.37;0.60;;;10.40;99.90;;;;;;5056796;28;20286;-72
2023/01/12 13:52:33;;;;;;;1.10;0.80;;;10.30;99.90;;;;;;5053088;28;20210;-72
2023/01/12 13:54:59;;;;;;;3.63;1.33;;;10.40;99.90;;;;;;5052690;28;20200;-71
2023/01/12 13:57:27;;;;;;;1.30;0.60;;;10.40;99.90;;;;;;5056687;28;20187;-72
2023/01/12 14:00:03;;;;;;;2.70;1.00;;;10.30;99.90;;;;;;5035169;28;20184;-71